Back to Top

Language: 

My Weather Underground Personal Weather Station Historical Data with Graphs...

Delerius Weather Station Historical Data
Daily Summary for October 9, 2017 Units:  English    Metric   Both
« Previous Day
Next Day »
Daily Weekly Monthly Yearly Custom
  High: Low: Average:
Temperature: 61.9 °F 50.2 °F 55.1 °F
Dew Point: 53.8 °F 48.5 °F 51.2 °F
Humidity: 96 % 70 % 87 %
Wind Speed: 10.0 mph 0.0 mph 2.9 mph
Wind Gust: 18.0 mph - -
Wind:- - West
Pressure: 30.12 in 29.90 in -
Precipitation: 0.00 in    
Historical Graphs
 
 
Tabular Data for October 9, 2017
Time Temperature Dew Point Pressure Wind Wind Speed Wind Gust Humidity Rainfall Rate (Hourly) solar Conditions
00:02 50.2 °F 48.5 °F 30.11 in NW 2.0 mph 5.0 mph 94 % 0.00 in 0 W/m2
00:07 50.4 °F 48.7 °F 30.11 in NW 3.0 mph 5.0 mph 94 % 0.00 in 0 W/m2
00:13 50.4 °F 48.7 °F 30.12 in NW 1.0 mph 4.0 mph 94 % 0.00 in 0 W/m2
00:18 50.5 °F 48.9 °F 30.12 in Calm   2.0 mph 94 % 0.00 in 0 W/m2
00:23 50.4 °F 48.7 °F 30.12 in Calm     94 % 0.00 in 0 W/m2
00:28 50.4 °F 48.7 °F 30.12 in Calm     94 % 0.00 in 0 W/m2
00:33 50.2 °F 48.5 °F 30.12 in Calm     94 % 0.00 in 0 W/m2
00:38 50.4 °F 48.7 °F 30.11 in Calm     94 % 0.00 in 0 W/m2
00:43 50.5 °F 49.2 °F 30.11 in Calm     95 % 0.00 in 0 W/m2
00:48 50.5 °F 49.2 °F 30.11 in Calm     95 % 0.00 in 0 W/m2
00:53 50.7 °F 49.3 °F 30.11 in Calm     95 % 0.00 in 0 W/m2
00:58 50.7 °F 49.3 °F 30.11 in Calm     95 % 0.00 in 0 W/m2
01:03 50.5 °F 48.9 °F 30.11 in Calm     94 % 0.00 in 0 W/m2
01:08 50.5 °F 48.9 °F 30.11 in Calm     94 % 0.00 in 0 W/m2
01:13 50.5 °F 48.9 °F 30.11 in Calm     94 % 0.00 in 0 W/m2
01:23 50.7 °F 49.3 °F 30.10 in Calm     95 % 0.00 in 0 W/m2
01:28 51.1 °F 49.7 °F 30.10 in Calm     95 % 0.00 in 0 W/m2
01:33 51.3 °F 49.9 °F 30.10 in Calm   1.0 mph 95 % 0.00 in 0 W/m2
01:38 51.4 °F 50.1 °F 30.10 in Calm   2.0 mph 95 % 0.00 in 0 W/m2
01:43 51.4 °F 50.1 °F 30.10 in Calm   2.0 mph 95 % 0.00 in 0 W/m2
01:48 51.4 °F 50.1 °F 30.10 in Calm   1.0 mph 95 % 0.00 in 0 W/m2
01:53 51.4 °F 50.1 °F 30.10 in Calm     95 % 0.00 in 0 W/m2
01:58 51.6 °F 50.2 °F 30.10 in Calm     95 % 0.00 in 0 W/m2
02:03 51.6 °F 50.2 °F 30.10 in Calm     95 % 0.00 in 0 W/m2
02:08 51.6 °F 50.2 °F 30.10 in Calm   1.0 mph 95 % 0.00 in 0 W/m2
02:13 51.8 °F 50.4 °F 30.10 in Calm   1.0 mph 95 % 0.00 in 0 W/m2
02:18 51.8 °F 50.1 °F 30.10 in Calm     94 % 0.00 in 0 W/m2
02:23 51.6 °F 49.9 °F 30.10 in Calm     94 % 0.00 in 0 W/m2
02:28 51.4 °F 49.8 °F 30.10 in Calm     94 % 0.00 in 0 W/m2
02:33 51.4 °F 49.8 °F 30.10 in Calm     94 % 0.00 in 0 W/m2
02:38 51.3 °F 49.6 °F 30.09 in Calm     94 % 0.00 in 0 W/m2
02:39 51.3 °F 49.6 °F 30.09 in Calm     94 % 0.00 in 0 W/m2
02:44 51.1 °F 49.4 °F 30.09 in Calm   2.0 mph 94 % 0.00 in 0 W/m2
02:49 51.1 °F 49.4 °F 30.09 in Calm   2.0 mph 94 % 0.00 in 0 W/m2
02:54 51.3 °F 49.9 °F 30.09 in Calm     95 % 0.00 in 0 W/m2
02:59 51.4 °F 50.1 °F 30.08 in Calm     95 % 0.00 in 0 W/m2
03:04 51.6 °F 50.2 °F 30.08 in Calm     95 % 0.00 in 0 W/m2
03:10 51.8 °F 50.4 °F 30.08 in Calm     95 % 0.00 in 0 W/m2
03:15 52.0 °F 50.6 °F 30.08 in NW 1.0 mph 3.0 mph 95 % 0.00 in 0 W/m2
03:17 52.0 °F 50.6 °F 30.08 in NW 1.0 mph 3.0 mph 95 % 0.00 in 0 W/m2
03:22 52.2 °F 50.8 °F 30.08 in Calm   2.0 mph 95 % 0.00 in 0 W/m2
03:28 52.2 °F 50.8 °F 30.07 in Calm     95 % 0.00 in 0 W/m2
03:38 52.0 °F 50.3 °F 30.08 in Calm     94 % 0.00 in 0 W/m2
03:43 51.8 °F 50.1 °F 30.08 in Calm   2.0 mph 94 % 0.00 in 0 W/m2
03:48 51.8 °F 50.1 °F 30.08 in Calm   2.0 mph 94 % 0.00 in 0 W/m2
03:53 52.0 °F 50.6 °F 30.07 in Calm   1.0 mph 95 % 0.00 in 0 W/m2
03:58 52.0 °F 50.6 °F 30.07 in Calm   3.0 mph 95 % 0.00 in 0 W/m2
04:03 52.2 °F 50.8 °F 30.07 in Calm   3.0 mph 95 % 0.00 in 0 W/m2
04:08 52.2 °F 50.8 °F 30.07 in Calm   1.0 mph 95 % 0.00 in 0 W/m2
04:14 52.2 °F 50.8 °F 30.07 in Calm     95 % 0.00 in 0 W/m2
04:19 52.2 °F 50.8 °F 30.07 in Calm     95 % 0.00 in 0 W/m2
04:21 52.2 °F 50.8 °F 30.07 in Calm   2.0 mph 95 % 0.00 in 0 W/m2
04:23 52.2 °F 50.8 °F 30.07 in Calm   2.0 mph 95 % 0.00 in 0 W/m2
04:24 52.2 °F 50.8 °F 30.07 in Calm   2.0 mph 95 % 0.00 in 0 W/m2
04:28 52.2 °F 50.8 °F 30.07 in Calm   2.0 mph 95 % 0.00 in 0 W/m2
04:29 52.2 °F 50.8 °F 30.07 in Calm   2.0 mph 95 % 0.00 in 0 W/m2
04:34 52.2 °F 50.8 °F 30.07 in Calm   1.0 mph 95 % 0.00 in 0 W/m2
04:35 52.2 °F 50.8 °F 30.07 in Calm   1.0 mph 95 % 0.00 in 0 W/m2
04:40 52.3 °F 51.0 °F 30.07 in Calm     95 % 0.00 in 0 W/m2
04:43 52.3 °F 51.0 °F 30.07 in Calm     95 % 0.00 in 0 W/m2
04:48 52.3 °F 50.7 °F 30.06 in Calm     94 % 0.00 in 0 W/m2
04:58 52.3 °F 50.7 °F 30.06 in Calm     94 % 0.00 in 0 W/m2
05:03 52.2 °F 50.5 °F 30.06 in Calm     94 % 0.00 in 0 W/m2
05:08 52.2 °F 50.5 °F 30.06 in Calm     94 % 0.00 in 0 W/m2
05:13 52.0 °F 50.3 °F 30.06 in Calm     94 % 0.00 in 0 W/m2
05:18 52.0 °F 50.3 °F 30.06 in Calm     94 % 0.00 in 0 W/m2
05:23 52.0 °F 50.3 °F 30.06 in Calm   1.0 mph 94 % 0.00 in 0 W/m2
05:29 52.0 °F 50.6 °F 30.06 in Calm   1.0 mph 95 % 0.00 in 0 W/m2
05:33 52.0 °F 50.6 °F 30.06 in Calm   2.0 mph 95 % 0.00 in 0 W/m2
05:38 52.0 °F 50.6 °F 30.06 in Calm   2.0 mph 95 % 0.00 in 0 W/m2
05:43 52.0 °F 50.6 °F 30.06 in Calm     95 % 0.00 in 0 W/m2
05:48 52.0 °F 50.6 °F 30.06 in Calm     95 % 0.00 in 0 W/m2
05:53 52.0 °F 50.6 °F 30.05 in Calm     95 % 0.00 in 0 W/m2
06:03 52.0 °F 50.6 °F 30.05 in Calm     95 % 0.00 in 0 W/m2
06:14 52.0 °F 50.6 °F 30.06 in Calm     95 % 0.00 in 0 W/m2
06:19 52.0 °F 50.6 °F 30.06 in Calm     95 % 0.00 in 0 W/m2
06:24 52.0 °F 50.6 °F 30.06 in Calm     95 % 0.00 in 0 W/m2
06:29 52.0 °F 50.6 °F 30.05 in Calm     95 % 0.00 in 0 W/m2
06:34 52.0 °F 50.6 °F 30.06 in Calm     95 % 0.00 in 0 W/m2
06:39 52.0 °F 50.6 °F 30.05 in Calm     95 % 0.00 in 0 W/m2
06:44 52.0 °F 50.6 °F 30.05 in Calm     95 % 0.00 in 0 W/m2
06:49 52.0 °F 50.6 °F 30.05 in Calm     95 % 0.00 in 0 W/m2
06:54 52.0 °F 50.6 °F 30.05 in Calm     95 % 0.00 in 0 W/m2
06:59 52.0 °F 50.6 °F 30.05 in Calm     95 % 0.00 in 0 W/m2
07:04 52.0 °F 50.6 °F 30.05 in Calm     95 % 0.00 in 0 W/m2
07:09 52.0 °F 50.6 °F 30.05 in Calm     95 % 0.00 in 0 W/m2
07:11 52.0 °F 50.6 °F 30.05 in Calm     95 % 0.00 in 0 W/m2
07:16 52.2 °F 50.8 °F 30.05 in Calm     95 % 0.00 in 0 W/m2
07:21 52.2 °F 50.8 °F 30.05 in Calm   1.0 mph 95 % 0.00 in 0 W/m2
07:26 52.2 °F 50.8 °F 30.05 in Calm   1.0 mph 95 % 0.00 in 0 W/m2
07:31 52.3 °F 51.0 °F 30.05 in Calm   2.0 mph 95 % 0.00 in 0 W/m2
07:42 52.3 °F 51.0 °F 30.05 in NW 1.0 mph 5.0 mph 95 % 0.00 in 7 W/m2
07:47 52.5 °F 51.1 °F 30.05 in NW 3.0 mph 5.0 mph 95 % 0.00 in 9 W/m2
07:52 52.7 °F 51.3 °F 30.04 in NW 1.0 mph 5.0 mph 95 % 0.00 in 11 W/m2
07:57 52.7 °F 51.3 °F 30.04 in Calm   2.0 mph 95 % 0.00 in 11 W/m2
08:02 52.7 °F 51.3 °F 30.04 in Calm     95 % 0.00 in 12 W/m2
08:07 52.5 °F 51.1 °F 30.05 in Calm     95 % 0.00 in 14 W/m2
08:12 52.3 °F 51.0 °F 30.05 in Calm     95 % 0.00 in 12 W/m2
08:17 52.3 °F 51.0 °F 30.05 in Calm     95 % 0.00 in 19 W/m2
08:22 52.3 °F 51.0 °F 30.05 in Calm     95 % 0.00 in 37 W/m2
08:27 52.3 °F 51.0 °F 30.05 in Calm     95 % 0.00 in 40 W/m2
08:32 52.5 °F 51.1 °F 30.05 in Calm   3.0 mph 95 % 0.00 in 39 W/m2
08:37 52.7 °F 51.3 °F 30.05 in NW 1.0 mph 3.0 mph 95 % 0.00 in 33 W/m2
08:42 52.9 °F 51.8 °F 30.05 in NW 1.0 mph 4.0 mph 96 % 0.00 in 28 W/m2
08:47 53.1 °F 52.0 °F 30.05 in NW 1.0 mph 4.0 mph 96 % 0.00 in 33 W/m2
08:52 53.2 °F 51.8 °F 30.05 in Calm   2.0 mph 95 % 0.00 in 39 W/m2
08:57 53.2 °F 51.8 °F 30.05 in Calm   1.0 mph 95 % 0.00 in 51 W/m2
09:02 53.4 °F 52.0 °F 30.05 in Calm   1.0 mph 95 % 0.00 in 54 W/m2
09:07 53.6 °F 52.2 °F 30.05 in Calm   2.0 mph 95 % 0.00 in 60 W/m2
09:12 53.8 °F 52.4 °F 30.05 in Calm   2.0 mph 95 % 0.00 in 67 W/m2
09:17 54.0 °F 52.6 °F 30.05 in North 1.0 mph 4.0 mph 95 % 0.00 in 69 W/m2
09:22 54.1 °F 52.7 °F 30.05 in North 1.0 mph 4.0 mph 95 % 0.00 in 76 W/m2
09:27 54.3 °F 52.9 °F 30.05 in North 1.0 mph 5.0 mph 95 % 0.00 in 84 W/m2
09:32 54.5 °F 53.1 °F 30.05 in North 2.0 mph 5.0 mph 95 % 0.00 in 81 W/m2
09:37 54.7 °F 53.3 °F 30.05 in North 1.0 mph 4.0 mph 95 % 0.00 in 90 W/m2
09:42 54.9 °F 53.2 °F 30.05 in North 1.0 mph 4.0 mph 94 % 0.00 in 95 W/m2
09:47 55.0 °F 53.3 °F 30.05 in North 1.0 mph 3.0 mph 94 % 0.00 in 104 W/m2
09:52 55.2 °F 53.5 °F 30.05 in Calm   2.0 mph 94 % 0.00 in 105 W/m2
09:57 55.2 °F 53.5 °F 30.05 in Calm   2.0 mph 94 % 0.00 in 125 W/m2
10:02 55.6 °F 53.6 °F 30.05 in Calm     93 % 0.00 in 130 W/m2
10:07 55.6 °F 53.6 °F 30.05 in NW 1.0 mph 5.0 mph 93 % 0.00 in 139 W/m2
10:12 55.8 °F 53.8 °F 30.05 in NW 1.0 mph 5.0 mph 93 % 0.00 in 116 W/m2
10:17 55.9 °F 53.6 °F 30.05 in WNW 1.0 mph 6.0 mph 92 % 0.00 in 128 W/m2
10:22 56.1 °F 53.5 °F 30.05 in WNW 3.0 mph 6.0 mph 91 % 0.00 in 141 W/m2
10:27 56.3 °F 53.4 °F 30.05 in WNW 4.0 mph 7.0 mph 90 % 0.00 in 148 W/m2
10:33 56.5 °F 53.3 °F 30.05 in WNW 4.0 mph 7.0 mph 89 % 0.00 in 148 W/m2
10:38 56.7 °F 53.5 °F 30.05 in WNW 3.0 mph 7.0 mph 89 % 0.00 in 151 W/m2
10:39 56.7 °F 53.1 °F 30.05 in WNW 4.0 mph 9.0 mph 88 % 0.00 in 141 W/m2
10:44 56.8 °F 53.0 °F 30.05 in WNW 5.0 mph 11.0 mph 87 % 0.00 in 137 W/m2
10:49 57.0 °F 53.2 °F 30.05 in WNW 5.0 mph 11.0 mph 87 % 0.00 in 125 W/m2
10:54 57.2 °F 53.0 °F 30.05 in WNW 6.0 mph 11.0 mph 86 % 0.00 in 128 W/m2
10:59 57.4 °F 52.9 °F 30.05 in WNW 6.0 mph 11.0 mph 85 % 0.00 in 130 W/m2
11:04 57.4 °F 52.9 °F 30.05 in WNW 6.0 mph 11.0 mph 85 % 0.00 in 130 W/m2
11:09 57.6 °F 53.1 °F 30.04 in WNW 6.0 mph 11.0 mph 85 % 0.00 in 561 W/m2
11:14 58.3 °F 53.5 °F 30.04 in WNW 7.0 mph 11.0 mph 84 % 0.00 in 566 W/m2
11:19 58.5 °F 53.0 °F 30.04 in West 7.0 mph 11.0 mph 82 % 0.00 in 178 W/m2
11:25 58.8 °F 53.3 °F 30.04 in West 7.0 mph 11.0 mph 82 % 0.00 in 483 W/m2
11:30 59.4 °F 53.5 °F 30.04 in West 6.0 mph 10.0 mph 81 % 0.00 in 494 W/m2
11:35 59.5 °F 53.4 °F 30.04 in West 6.0 mph 10.0 mph 80 % 0.00 in 513 W/m2
11:40 60.1 °F 53.5 °F 30.03 in West 6.0 mph 9.0 mph 79 % 0.00 in 506 W/m2
11:45 60.6 °F 53.4 °F 30.03 in West 6.0 mph 10.0 mph 77 % 0.00 in 540 W/m2
11:50 61.0 °F 53.4 °F 30.03 in West 6.0 mph 11.0 mph 76 % 0.00 in 626 W/m2
11:55 61.5 °F 53.5 °F 30.03 in WNW 8.0 mph 15.0 mph 75 % 0.00 in 179 W/m2
12:00 61.7 °F 53.3 °F 30.03 in WNW 8.0 mph 15.0 mph 74 % 0.00 in 645 W/m2
12:05 61.9 °F 53.5 °F 30.03 in WNW 7.0 mph 12.0 mph 74 % 0.00 in 207 W/m2
12:10 61.7 °F 53.7 °F 30.03 in West 6.0 mph 10.0 mph 75 % 0.00 in 197 W/m2
12:15 61.5 °F 52.8 °F 30.03 in West 6.0 mph 10.0 mph 73 % 0.00 in 125 W/m2
12:20 61.2 °F 52.1 °F 30.03 in West 6.0 mph 12.0 mph 72 % 0.00 in 127 W/m2
12:25 61.0 °F 52.3 °F 30.03 in WSW 7.0 mph 13.0 mph 73 % 0.00 in 575 W/m2
12:30 61.5 °F 52.4 °F 30.03 in WSW 9.0 mph 15.0 mph 72 % 0.00 in 330 W/m2
12:35 61.9 °F 52.4 °F 30.03 in West 10.0 mph 15.0 mph 71 % 0.00 in 234 W/m2
12:40 61.9 °F 52.0 °F 30.03 in WNW 10.0 mph 16.0 mph 70 % 0.00 in 214 W/m2
12:45 61.5 °F 51.6 °F 30.03 in WNW 10.0 mph 16.0 mph 70 % 0.00 in 237 W/m2
12:50 61.5 °F 52.4 °F 30.03 in WNW 10.0 mph 16.0 mph 72 % 0.00 in 232 W/m2
12:55 61.5 °F 52.8 °F 30.02 in WNW 10.0 mph 16.0 mph 73 % 0.00 in 476 W/m2
13:00 61.5 °F 52.4 °F 30.02 in WNW 10.0 mph 15.0 mph 72 % 0.00 in 111 W/m2
13:05 61.2 °F 52.1 °F 30.02 in WNW 10.0 mph 15.0 mph 72 % 0.00 in 109 W/m2
13:10 60.6 °F 52.3 °F 30.02 in WNW 9.0 mph 14.0 mph 74 % 0.00 in 105 W/m2
13:16 60.3 °F 51.9 °F 30.03 in WNW 8.0 mph 13.0 mph 74 % 0.00 in 90 W/m2
13:21 60.1 °F 52.1 °F 30.03 in West 7.0 mph 13.0 mph 75 % 0.00 in 121 W/m2
13:26 59.7 °F 51.8 °F 30.03 in West 8.0 mph 18.0 mph 75 % 0.00 in 111 W/m2
13:31 59.7 °F 52.1 °F 30.02 in West 8.0 mph 18.0 mph 76 % 0.00 in 111 W/m2
13:36 59.5 °F 52.0 °F 30.02 in West 7.0 mph 11.0 mph 76 % 0.00 in 104 W/m2
13:41 59.4 °F 52.1 °F 30.02 in West 6.0 mph 11.0 mph 77 % 0.00 in 104 W/m2
13:46 59.4 °F 52.5 °F 30.02 in WSW 5.0 mph 9.0 mph 78 % 0.00 in 100 W/m2
13:51 59.2 °F 52.3 °F 30.02 in West 6.0 mph 11.0 mph 78 % 0.00 in 121 W/m2
13:56 59.2 °F 52.3 °F 30.02 in West 7.0 mph 11.0 mph 78 % 0.00 in 135 W/m2
14:01 59.2 °F 52.3 °F 30.01 in West 8.0 mph 11.0 mph 78 % 0.00 in 155 W/m2
14:06 59.2 °F 52.3 °F 30.01 in West 8.0 mph 11.0 mph 78 % 0.00 in 156 W/m2
14:11 59.2 °F 52.3 °F 30.01 in West 8.0 mph 12.0 mph 78 % 0.00 in 102 W/m2
14:16 59.2 °F 52.3 °F 30.01 in West 8.0 mph 12.0 mph 78 % 0.00 in 70 W/m2
14:21 59.2 °F 52.3 °F 30.01 in West 7.0 mph 11.0 mph 78 % 0.00 in 139 W/m2
14:26 59.2 °F 52.3 °F 30.01 in West 6.0 mph 10.0 mph 78 % 0.00 in 105 W/m2
14:31 59.0 °F 52.1 °F 30.01 in West 6.0 mph 10.0 mph 78 % 0.00 in 65 W/m2
14:36 59.0 °F 51.8 °F 30.01 in West 7.0 mph 11.0 mph 77 % 0.00 in 102 W/m2
14:41 58.8 °F 52.0 °F 30.01 in West 7.0 mph 11.0 mph 78 % 0.00 in 95 W/m2
14:46 58.8 °F 52.0 °F 30.01 in West 6.0 mph 9.0 mph 78 % 0.00 in 111 W/m2
14:51 58.8 °F 52.0 °F 30.01 in West 6.0 mph 11.0 mph 78 % 0.00 in 93 W/m2
14:56 58.8 °F 52.0 °F 30.01 in West 8.0 mph 14.0 mph 78 % 0.00 in 81 W/m2
15:01 58.6 °F 51.8 °F 30.01 in West 8.0 mph 14.0 mph 78 % 0.00 in 169 W/m2
15:11 59.4 °F 52.1 °F 30.00 in West 7.0 mph 11.0 mph 77 % 0.00 in 482 W/m2
15:21 59.4 °F 51.4 °F 30.01 in WSW 8.0 mph 13.0 mph 75 % 0.00 in 109 W/m2
15:26 59.2 °F 51.3 °F 30.01 in West 7.0 mph 12.0 mph 75 % 0.00 in 113 W/m2
15:31 59.0 °F 51.4 °F 30.01 in West 7.0 mph 12.0 mph 76 % 0.00 in 109 W/m2
15:36 58.8 °F 51.6 °F 30.00 in West 7.0 mph 11.0 mph 77 % 0.00 in 95 W/m2
15:39 59.0 °F 51.8 °F 30.00 in West 6.0 mph 11.0 mph 77 % 0.00 in 102 W/m2
15:44 59.2 °F 52.0 °F 30.00 in West 6.0 mph 9.0 mph 77 % 0.00 in 111 W/m2
15:49 59.2 °F 52.3 °F 30.00 in West 5.0 mph 9.0 mph 78 % 0.00 in 114 W/m2
15:54 59.2 °F 51.6 °F 30.00 in West 6.0 mph 12.0 mph 76 % 0.00 in 120 W/m2
15:59 59.2 °F 52.0 °F 30.00 in West 7.0 mph 12.0 mph 77 % 0.00 in 88 W/m2
16:04 59.2 °F 52.0 °F 30.00 in WNW 6.0 mph 9.0 mph 77 % 0.00 in 83 W/m2
16:09 59.4 °F 52.1 °F 30.00 in West 5.0 mph 8.0 mph 77 % 0.00 in 128 W/m2
16:15 59.4 °F 52.1 °F 29.99 in West 4.0 mph 8.0 mph 77 % 0.00 in 116 W/m2
16:25 59.4 °F 51.8 °F 29.99 in West 4.0 mph 8.0 mph 76 % 0.00 in 84 W/m2
16:30 59.4 °F 51.8 °F 29.99 in West 4.0 mph 8.0 mph 76 % 0.00 in 81 W/m2
16:35 59.5 °F 52.0 °F 29.99 in WNW 3.0 mph 6.0 mph 76 % 0.00 in 67 W/m2
16:40 59.4 °F 51.4 °F 29.99 in West 4.0 mph 9.0 mph 75 % 0.00 in 40 W/m2
16:41 59.4 °F 51.4 °F 29.99 in WSW 3.0 mph 9.0 mph 75 % 0.00 in 37 W/m2
16:46 59.4 °F 51.4 °F 29.98 in WSW 3.0 mph 7.0 mph 75 % 0.00 in 33 W/m2
16:51 59.4 °F 51.4 °F 29.98 in West 2.0 mph 5.0 mph 75 % 0.00 in 40 W/m2
16:56 59.4 °F 52.1 °F 29.98 in West 2.0 mph 5.0 mph 77 % 0.00 in 39 W/m2
17:01 59.2 °F 52.3 °F 29.98 in West 1.0 mph 5.0 mph 78 % 0.00 in 30 W/m2
17:06 59.2 °F 52.7 °F 29.98 in West 1.0 mph 3.0 mph 79 % 0.00 in 25 W/m2
17:11 59.0 °F 52.5 °F 29.98 in West 1.0 mph 4.0 mph 79 % 0.00 in 18 W/m2
17:16 58.8 °F 52.3 °F 29.98 in West 3.0 mph 10.0 mph 79 % 0.00 in 11 W/m2
17:21 58.6 °F 52.5 °F 29.98 in West 4.0 mph 10.0 mph 80 % 0.00 in 11 W/m2
17:26 58.3 °F 51.8 °F 29.98 in West 4.0 mph 9.0 mph 79 % 0.00 in 11 W/m2
17:31 57.9 °F 51.4 °F 29.98 in WSW 5.0 mph 11.0 mph 79 % 0.00 in 11 W/m2
17:37 57.7 °F 51.3 °F 29.98 in West 6.0 mph 12.0 mph 79 % 0.00 in 14 W/m2
17:42 57.6 °F 51.1 °F 29.98 in West 7.0 mph 12.0 mph 79 % 0.00 in 23 W/m2
17:47 57.6 °F 51.1 °F 29.98 in West 7.0 mph 12.0 mph 79 % 0.00 in 25 W/m2
17:52 57.6 °F 51.1 °F 29.98 in West 7.0 mph 10.0 mph 79 % 0.00 in 18 W/m2
17:57 57.6 °F 51.1 °F 29.98 in West 6.0 mph 10.0 mph 79 % 0.00 in 21 W/m2
18:02 57.6 °F 51.1 °F 29.98 in West 5.0 mph 9.0 mph 79 % 0.00 in 25 W/m2
18:07 57.4 °F 50.9 °F 29.98 in West 4.0 mph 7.0 mph 79 % 0.00 in 21 W/m2
18:12 57.4 °F 50.9 °F 29.97 in WSW 4.0 mph 7.0 mph 79 % 0.00 in 14 W/m2
18:17 57.2 °F 50.7 °F 29.98 in WSW 4.0 mph 7.0 mph 79 % 0.00 in 9 W/m2
18:22 57.0 °F 50.6 °F 29.98 in WSW 3.0 mph 7.0 mph 79 % 0.00 in 0 W/m2
18:27 57.0 °F 50.6 °F 29.98 in WSW 3.0 mph 5.0 mph 79 % 0.00 in 0 W/m2
18:32 56.8 °F 50.7 °F 29.98 in WSW 2.0 mph 5.0 mph 80 % 0.00 in 0 W/m2
18:37 56.7 °F 50.6 °F 29.97 in WSW 1.0 mph 4.0 mph 80 % 0.00 in 0 W/m2
18:42 56.7 °F 50.6 °F 29.98 in Calm   3.0 mph 80 % 0.00 in 0 W/m2
18:47 56.5 °F 50.4 °F 29.97 in Calm   3.0 mph 80 % 0.00 in 0 W/m2
18:52 56.5 °F 50.7 °F 29.98 in Calm   3.0 mph 81 % 0.00 in 0 W/m2
18:57 56.1 °F 50.4 °F 29.97 in Calm   1.0 mph 81 % 0.00 in 0 W/m2
19:02 55.9 °F 50.2 °F 29.97 in Calm   1.0 mph 81 % 0.00 in 0 W/m2
19:07 55.8 °F 50.3 °F 29.97 in Calm     82 % 0.00 in 0 W/m2
19:12 55.6 °F 50.5 °F 29.97 in Calm     83 % 0.00 in 0 W/m2
19:17 55.4 °F 50.6 °F 29.97 in Calm   2.0 mph 84 % 0.00 in 0 W/m2
19:22 55.2 °F 50.5 °F 29.97 in Calm   2.0 mph 84 % 0.00 in 0 W/m2
19:27 55.0 °F 50.6 °F 29.97 in Calm   1.0 mph 85 % 0.00 in 0 W/m2
19:32 55.2 °F 50.8 °F 29.97 in Calm   2.0 mph 85 % 0.00 in 0 W/m2
19:37 55.2 °F 50.8 °F 29.97 in WSW 1.0 mph 5.0 mph 85 % 0.00 in 0 W/m2
19:42 55.2 °F 50.8 °F 29.96 in WSW 1.0 mph 5.0 mph 85 % 0.00 in 0 W/m2
19:52 55.0 °F 50.9 °F 29.96 in WSW 1.0 mph 4.0 mph 86 % 0.00 in 0 W/m2
19:57 54.9 °F 50.8 °F 29.96 in WSW 1.0 mph 4.0 mph 86 % 0.00 in 0 W/m2
20:02 54.9 °F 50.8 °F 29.96 in WSW 3.0 mph 9.0 mph 86 % 0.00 in 0 W/m2
20:07 54.9 °F 50.8 °F 29.96 in WSW 3.0 mph 9.0 mph 86 % 0.00 in 0 W/m2
20:13 54.9 °F 50.8 °F 29.96 in WSW 3.0 mph 6.0 mph 86 % 0.00 in 0 W/m2
20:14 54.9 °F 50.8 °F 29.96 in WSW 3.0 mph 6.0 mph 86 % 0.00 in 0 W/m2
20:19 55.0 °F 50.9 °F 29.96 in WSW 3.0 mph 6.0 mph 86 % 0.00 in 0 W/m2
20:24 55.0 °F 50.9 °F 29.95 in WSW 1.0 mph 6.0 mph 86 % 0.00 in 0 W/m2
20:29 54.9 °F 50.8 °F 29.95 in WSW 1.0 mph 6.0 mph 86 % 0.00 in 0 W/m2
20:34 54.9 °F 50.8 °F 29.95 in SSW 2.0 mph 7.0 mph 86 % 0.00 in 0 W/m2
20:39 54.7 °F 50.9 °F 29.95 in SSW 3.0 mph 8.0 mph 87 % 0.00 in 0 W/m2
20:44 54.7 °F 50.9 °F 29.95 in SW 4.0 mph 8.0 mph 87 % 0.00 in 0 W/m2
20:49 54.7 °F 50.9 °F 29.95 in SW 3.0 mph 7.0 mph 87 % 0.00 in 0 W/m2
20:54 54.7 °F 50.9 °F 29.95 in SSW 1.0 mph 5.0 mph 87 % 0.00 in 0 W/m2
20:59 54.9 °F 51.1 °F 29.95 in Calm   4.0 mph 87 % 0.00 in 0 W/m2
21:04 54.7 °F 50.9 °F 29.95 in Calm     87 % 0.00 in 0 W/m2
21:09 54.7 °F 50.9 °F 29.95 in Calm   3.0 mph 87 % 0.00 in 0 W/m2
21:14 54.7 °F 50.9 °F 29.95 in Calm   3.0 mph 87 % 0.00 in 0 W/m2
21:19 54.3 °F 50.2 °F 29.95 in Calm   1.0 mph 86 % 0.00 in 0 W/m2
21:29 54.1 °F 50.4 °F 29.95 in SW 1.0 mph 5.0 mph 87 % 0.00 in 0 W/m2
21:34 54.1 °F 50.7 °F 29.94 in WSW 3.0 mph 10.0 mph 88 % 0.00 in 0 W/m2
21:39 54.1 °F 50.4 °F 29.94 in WSW 5.0 mph 10.0 mph 87 % 0.00 in 0 W/m2
21:44 54.1 °F 50.4 °F 29.94 in WSW 6.0 mph 9.0 mph 87 % 0.00 in 0 W/m2
21:49 54.1 °F 50.4 °F 29.93 in WSW 7.0 mph 11.0 mph 87 % 0.00 in 0 W/m2
21:54 54.3 °F 50.5 °F 29.93 in WSW 8.0 mph 12.0 mph 87 % 0.00 in 0 W/m2
21:59 54.5 °F 50.7 °F 29.93 in WSW 8.0 mph 12.0 mph 87 % 0.00 in 0 W/m2
22:04 54.5 °F 50.7 °F 29.93 in WSW 7.0 mph 12.0 mph 87 % 0.00 in 0 W/m2
22:09 54.3 °F 50.5 °F 29.93 in WSW 7.0 mph 10.0 mph 87 % 0.00 in 0 W/m2
22:14 54.3 °F 50.5 °F 29.93 in WSW 6.0 mph 9.0 mph 87 % 0.00 in 0 W/m2
22:19 54.3 °F 50.8 °F 29.93 in WSW 7.0 mph 12.0 mph 88 % 0.00 in 0 W/m2
22:24 54.3 °F 50.8 °F 29.93 in WSW 7.0 mph 12.0 mph 88 % 0.00 in 0 W/m2
22:29 54.3 °F 50.8 °F 29.93 in WSW 7.0 mph 11.0 mph 88 % 0.00 in 0 W/m2
22:34 54.3 °F 50.8 °F 29.93 in WSW 7.0 mph 11.0 mph 88 % 0.00 in 0 W/m2
22:39 54.3 °F 50.8 °F 29.92 in WSW 6.0 mph 11.0 mph 88 % 0.00 in 0 W/m2
22:44 54.3 °F 50.8 °F 29.93 in WSW 6.0 mph 9.0 mph 88 % 0.00 in 0 W/m2
22:49 54.3 °F 50.8 °F 29.92 in WSW 4.0 mph 9.0 mph 88 % 0.00 in 0 W/m2
22:55 54.3 °F 50.8 °F 29.92 in WSW 3.0 mph 7.0 mph 88 % 0.00 in 0 W/m2
23:00 54.1 °F 51.0 °F 29.92 in SW 5.0 mph 8.0 mph 89 % 0.00 in 0 W/m2
23:05 54.1 °F 51.0 °F 29.92 in SW 6.0 mph 8.0 mph 89 % 0.00 in 0 W/m2
23:10 54.1 °F 51.0 °F 29.92 in SW 6.0 mph 9.0 mph 89 % 0.00 in 0 W/m2
23:20 54.1 °F 51.3 °F 29.91 in SW 5.0 mph 8.0 mph 90 % 0.00 in 0 W/m2
23:30 54.3 °F 51.4 °F 29.91 in WSW 5.0 mph 8.0 mph 90 % 0.00 in 0 W/m2
23:35 54.5 °F 51.6 °F 29.91 in WSW 5.0 mph 11.0 mph 90 % 0.00 in 0 W/m2
23:40 54.7 °F 51.8 °F 29.91 in WSW 6.0 mph 11.0 mph 90 % 0.00 in 0 W/m2
23:45 54.7 °F 51.5 °F 29.90 in WSW 7.0 mph 11.0 mph 89 % 0.00 in 0 W/m2
23:50 54.7 °F 51.5 °F 29.91 in WSW 6.0 mph 10.0 mph 89 % 0.00 in 0 W/m2
23:55 54.9 °F 51.7 °F 29.91 in WSW 6.0 mph 10.0 mph 89 % 0.00 in 0 W/m2
Delerius-Weather
Compliments of Weather Underground - 2.25 mb

Data updates at regular intervals.